sensor_id;sensor_type;location;lat;lon;timestamp;temperature;humidity
19847;DHT22;10084;50.518;8.588;2022-08-04T00:12:24;22.50;80.40
19847;DHT22;10084;50.518;8.588;2022-08-04T00:14:53;22.50;79.00
19847;DHT22;10084;50.518;8.588;2022-08-04T00:22:27;22.20;74.70
19847;DHT22;10084;50.518;8.588;2022-08-04T00:24:54;22.30;69.90
19847;DHT22;10084;50.518;8.588;2022-08-04T00:27:20;22.30;69.00
19847;DHT22;10084;50.518;8.588;2022-08-04T00:29:47;22.30;65.70
19847;DHT22;10084;50.518;8.588;2022-08-04T00:32:12;22.20;66.10
19847;DHT22;10084;50.518;8.588;2022-08-04T00:34:38;22.20;66.20
19847;DHT22;10084;50.518;8.588;2022-08-04T00:37:05;22.20;62.40
19847;DHT22;10084;50.518;8.588;2022-08-04T00:39:31;22.20;63.10
19847;DHT22;10084;50.518;8.588;2022-08-04T00:55:09;22.00;64.80
19847;DHT22;10084;50.518;8.588;2022-08-04T01:00:35;21.90;65.70
19847;DHT22;10084;50.518;8.588;2022-08-04T01:03:20;21.80;65.80
19847;DHT22;10084;50.518;8.588;2022-08-04T01:08:48;21.70;64.60
19847;DHT22;10084;50.518;8.588;2022-08-04T01:17:00;21.50;62.90
19847;DHT22;10084;50.518;8.588;2022-08-04T01:19:41;21.50;62.90
19847;DHT22;10084;50.518;8.588;2022-08-04T01:28:05;21.40;60.40
19847;DHT22;10084;50.518;8.588;2022-08-04T01:30:35;21.40;61.00
19847;DHT22;10084;50.518;8.588;2022-08-04T01:33:04;21.30;63.80
19847;DHT22;10084;50.518;8.588;2022-08-04T01:35:54;21.30;64.60
19847;DHT22;10084;50.518;8.588;2022-08-04T01:38:38;21.30;66.50
19847;DHT22;10084;50.518;8.588;2022-08-04T01:41:13;21.30;65.40
19847;DHT22;10084;50.518;8.588;2022-08-04T01:43:43;21.30;64.30
19847;DHT22;10084;50.518;8.588;2022-08-04T01:46:15;21.30;65.10
19847;DHT22;10084;50.518;8.588;2022-08-04T01:48:44;21.20;65.60
19847;DHT22;10084;50.518;8.588;2022-08-04T01:51:10;21.20;63.20
19847;DHT22;10084;50.518;8.588;2022-08-04T01:53:40;21.20;63.90
19847;DHT22;10084;50.518;8.588;2022-08-04T01:56:08;21.10;64.70
19847;DHT22;10084;50.518;8.588;2022-08-04T01:58:35;21.10;61.40
19847;DHT22;10084;50.518;8.588;2022-08-04T02:01:09;20.90;61.30
19847;DHT22;10084;50.518;8.588;2022-08-04T02:03:38;20.90;61.20
19847;DHT22;10084;50.518;8.588;2022-08-04T02:09:11;20.90;61.50
19847;DHT22;10084;50.518;8.588;2022-08-04T02:11:47;20.90;61.80
19847;DHT22;10084;50.518;8.588;2022-08-04T02:14:23;20.80;62.20
19847;DHT22;10084;50.518;8.588;2022-08-04T02:17:13;20.80;62.90
19847;DHT22;10084;50.518;8.588;2022-08-04T02:22:41;20.80;65.00
19847;DHT22;10084;50.518;8.588;2022-08-04T02:25:10;20.80;65.50
19847;DHT22;10084;50.518;8.588;2022-08-04T02:28:29;20.80;67.20
19847;DHT22;10084;50.518;8.588;2022-08-04T02:33:27;20.80;67.80
19847;DHT22;10084;50.518;8.588;2022-08-04T02:35:58;20.70;67.40
19847;DHT22;10084;50.518;8.588;2022-08-04T02:38:32;20.70;67.70
19847;DHT22;10084;50.518;8.588;2022-08-04T02:41:03;20.70;67.60
19847;DHT22;10084;50.518;8.588;2022-08-04T02:43:30;20.60;67.90
19847;DHT22;10084;50.518;8.588;2022-08-04T02:45:58;20.50;67.50
19847;DHT22;10084;50.518;8.588;2022-08-04T02:48:26;20.50;68.30
19847;DHT22;10084;50.518;8.588;2022-08-04T02:50:54;20.50;68.10
19847;DHT22;10084;50.518;8.588;2022-08-04T02:53:21;20.40;68.20
19847;DHT22;10084;50.518;8.588;2022-08-04T02:55:47;20.40;69.00
19847;DHT22;10084;50.518;8.588;2022-08-04T02:58:16;20.30;68.90
19847;DHT22;10084;50.518;8.588;2022-08-04T03:00:44;20.30;69.40
19847;DHT22;10084;50.518;8.588;2022-08-04T03:03:35;20.30;69.50
19847;DHT22;10084;50.518;8.588;2022-08-04T03:17:45;20.30;70.70
19847;DHT22;10084;50.518;8.588;2022-08-04T03:23:23;20.20;70.90
19847;DHT22;10084;50.518;8.588;2022-08-04T03:35:02;20.20;71.40
19847;DHT22;10084;50.518;8.588;2022-08-04T03:43:42;20.20;78.20
19847;DHT22;10084;50.518;8.588;2022-08-04T03:49:41;20.20;73.00
19847;DHT22;10084;50.518;8.588;2022-08-04T04:06:59;20.10;76.20
19847;DHT22;10084;50.518;8.588;2022-08-04T04:18:56;20.20;72.20
19847;DHT22;10084;50.518;8.588;2022-08-04T04:21:33;20.20;73.80
19847;DHT22;10084;50.518;8.588;2022-08-04T04:24:20;20.20;75.90
19847;DHT22;10084;50.518;8.588;2022-08-04T04:35:28;20.20;78.10
19847;DHT22;10084;50.518;8.588;2022-08-04T04:41:02;20.20;78.40
19847;DHT22;10084;50.518;8.588;2022-08-04T04:43:58;20.20;79.50
19847;DHT22;10084;50.518;8.588;2022-08-04T04:46:49;20.30;77.60
19847;DHT22;10084;50.518;8.588;2022-08-04T04:49:32;20.30;77.30
19847;DHT22;10084;50.518;8.588;2022-08-04T04:52:08;20.30;78.00
19847;DHT22;10084;50.518;8.588;2022-08-04T04:54:42;20.40;79.60
19847;DHT22;10084;50.518;8.588;2022-08-04T04:57:20;20.40;77.10
19847;DHT22;10084;50.518;8.588;2022-08-04T04:59:59;20.50;78.40
19847;DHT22;10084;50.518;8.588;2022-08-04T05:11:00;20.80;75.70
19847;DHT22;10084;50.518;8.588;2022-08-04T05:13:43;20.80;75.60
19847;DHT22;10084;50.518;8.588;2022-08-04T05:16:17;20.90;76.40
19847;DHT22;10084;50.518;8.588;2022-08-04T05:18:47;21.00;75.70
19847;DHT22;10084;50.518;8.588;2022-08-04T05:23:57;21.30;76.40
19847;DHT22;10084;50.518;8.588;2022-08-04T05:26:30;21.50;77.00
19847;DHT22;10084;50.518;8.588;2022-08-04T05:28:58;21.80;77.00
19847;DHT22;10084;50.518;8.588;2022-08-04T05:31:40;22.20;73.30
19847;DHT22;10084;50.518;8.588;2022-08-04T05:34:12;22.70;74.80
19847;DHT22;10084;50.518;8.588;2022-08-04T05:36:48;23.20;75.20
19847;DHT22;10084;50.518;8.588;2022-08-04T05:39:19;23.60;76.90
19847;DHT22;10084;50.518;8.588;2022-08-04T05:41:47;24.10;77.00
19847;DHT22;10084;50.518;8.588;2022-08-04T05:44:15;24.60;79.20
19847;DHT22;10084;50.518;8.588;2022-08-04T05:46:43;25.20;79.50
19847;DHT22;10084;50.518;8.588;2022-08-04T05:49:10;25.50;80.30
19847;DHT22;10084;50.518;8.588;2022-08-04T05:51:36;25.90;80.30
19847;DHT22;10084;50.518;8.588;2022-08-04T05:54:04;26.50;85.30
19847;DHT22;10084;50.518;8.588;2022-08-04T05:56:31;27.00;82.00
19847;DHT22;10084;50.518;8.588;2022-08-04T05:58:59;27.60;81.30
19847;DHT22;10084;50.518;8.588;2022-08-04T06:01:28;28.00;81.10
19847;DHT22;10084;50.518;8.588;2022-08-04T06:03:56;28.20;81.80
19847;DHT22;10084;50.518;8.588;2022-08-04T06:06:24;28.20;80.60
19847;DHT22;10084;50.518;8.588;2022-08-04T06:08:50;28.40;81.70
19847;DHT22;10084;50.518;8.588;2022-08-04T06:11:18;28.60;84.70
19847;DHT22;10084;50.518;8.588;2022-08-04T06:13:53;28.60;88.40
19847;DHT22;10084;50.518;8.588;2022-08-04T06:16:23;28.70;82.40
19847;DHT22;10084;50.518;8.588;2022-08-04T06:18:50;28.80;82.80
19847;DHT22;10084;50.518;8.588;2022-08-04T06:21:20;28.90;80.70
19847;DHT22;10084;50.518;8.588;2022-08-04T06:26:16;29.30;82.80
19847;DHT22;10084;50.518;8.588;2022-08-04T06:28:50;29.80;85.10
19847;DHT22;10084;50.518;8.588;2022-08-04T06:34:03;30.00;83.70
19847;DHT22;10084;50.518;8.588;2022-08-04T06:36:30;29.90;84.70
19847;DHT22;10084;50.518;8.588;2022-08-04T06:38:58;29.70;82.20
19847;DHT22;10084;50.518;8.588;2022-08-04T06:41:27;29.60;81.80
19847;DHT22;10084;50.518;8.588;2022-08-04T06:43:54;29.40;79.40
19847;DHT22;10084;50.518;8.588;2022-08-04T06:46:22;29.30;77.90
19847;DHT22;10084;50.518;8.588;2022-08-04T06:48:49;29.20;79.50
19847;DHT22;10084;50.518;8.588;2022-08-04T06:51:16;29.20;80.60
19847;DHT22;10084;50.518;8.588;2022-08-04T06:53:42;29.10;80.30
19847;DHT22;10084;50.518;8.588;2022-08-04T06:58:36;28.90;81.30
19847;DHT22;10084;50.518;8.588;2022-08-04T07:01:02;28.80;77.80
19847;DHT22;10084;50.518;8.588;2022-08-04T07:03:30;28.90;77.70
19847;DHT22;10084;50.518;8.588;2022-08-04T07:05:56;28.90;71.60
19847;DHT22;10084;50.518;8.588;2022-08-04T07:08:22;29.10;71.90
19847;DHT22;10084;50.518;8.588;2022-08-04T07:10:49;29.20;72.20
19847;DHT22;10084;50.518;8.588;2022-08-04T07:13:18;29.30;73.60
19847;DHT22;10084;50.518;8.588;2022-08-04T07:15:46;29.40;72.70
19847;DHT22;10084;50.518;8.588;2022-08-04T07:18:12;29.70;71.60
19847;DHT22;10084;50.518;8.588;2022-08-04T07:20:43;29.80;72.30
19847;DHT22;10084;50.518;8.588;2022-08-04T07:23:10;30.00;74.90
19847;DHT22;10084;50.518;8.588;2022-08-04T07:25:38;30.00;76.00
19847;DHT22;10084;50.518;8.588;2022-08-04T07:28:04;30.10;72.50
19847;DHT22;10084;50.518;8.588;2022-08-04T07:30:30;30.10;74.20
19847;DHT22;10084;50.518;8.588;2022-08-04T07:32:58;30.10;74.70
19847;DHT22;10084;50.518;8.588;2022-08-04T07:35:26;30.10;75.30
19847;DHT22;10084;50.518;8.588;2022-08-04T07:37:53;30.20;74.80
19847;DHT22;10084;50.518;8.588;2022-08-04T07:40:18;30.40;71.50
19847;DHT22;10084;50.518;8.588;2022-08-04T07:42:45;30.30;71.90
19847;DHT22;10084;50.518;8.588;2022-08-04T07:47:41;30.20;72.60
19847;DHT22;10084;50.518;8.588;2022-08-04T07:50:10;30.20;70.90
19847;DHT22;10084;50.518;8.588;2022-08-04T07:52:37;30.20;71.60
19847;DHT22;10084;50.518;8.588;2022-08-04T07:55:04;30.10;72.60
19847;DHT22;10084;50.518;8.588;2022-08-04T07:57:30;30.10;68.70
19847;DHT22;10084;50.518;8.588;2022-08-04T07:59:55;30.00;70.60
19847;DHT22;10084;50.518;8.588;2022-08-04T08:02:22;30.10;69.20
19847;DHT22;10084;50.518;8.588;2022-08-04T08:04:48;30.20;72.20
19847;DHT22;10084;50.518;8.588;2022-08-04T08:07:14;30.30;71.30
19847;DHT22;10084;50.518;8.588;2022-08-04T08:09:39;30.50;70.90
19847;DHT22;10084;50.518;8.588;2022-08-04T08:12:06;30.60;71.20
19847;DHT22;10084;50.518;8.588;2022-08-04T08:14:34;30.80;70.70
19847;DHT22;10084;50.518;8.588;2022-08-04T08:17:00;30.90;74.30
19847;DHT22;10084;50.518;8.588;2022-08-04T08:21:53;31.10;71.40
19847;DHT22;10084;50.518;8.588;2022-08-04T08:24:19;31.20;71.30
19847;DHT22;10084;50.518;8.588;2022-08-04T08:26:45;31.40;69.10
19847;DHT22;10084;50.518;8.588;2022-08-04T08:29:12;31.40;67.70
19847;DHT22;10084;50.518;8.588;2022-08-04T08:31:37;31.60;66.60
19847;DHT22;10084;50.518;8.588;2022-08-04T08:34:04;31.90;67.20
19847;DHT22;10084;50.518;8.588;2022-08-04T08:36:41;32.10;68.50
19847;DHT22;10084;50.518;8.588;2022-08-04T08:39:15;32.30;72.40
19847;DHT22;10084;50.518;8.588;2022-08-04T08:44:59;32.30;70.20
19847;DHT22;10084;50.518;8.588;2022-08-04T09:03:09;33.50;72.20
19847;DHT22;10084;50.518;8.588;2022-08-04T09:11:24;34.00;74.30
19847;DHT22;10084;50.518;8.588;2022-08-04T09:16:44;34.20;70.80
19847;DHT22;10084;50.518;8.588;2022-08-04T09:22:10;34.80;69.80
19847;DHT22;10084;50.518;8.588;2022-08-04T09:27:20;35.70;70.80
19847;DHT22;10084;50.518;8.588;2022-08-04T09:30:04;35.90;68.60
19847;DHT22;10084;50.518;8.588;2022-08-04T09:38:32;36.10;47.50
19847;DHT22;10084;50.518;8.588;2022-08-04T09:52:42;37.20;51.80
19847;DHT22;10084;50.518;8.588;2022-08-04T09:55:33;37.60;48.30
19847;DHT22;10084;50.518;8.588;2022-08-04T09:58:26;37.50;47.70
19847;DHT22;10084;50.518;8.588;2022-08-04T10:01:03;37.60;48.40
19847;DHT22;10084;50.518;8.588;2022-08-04T10:03:36;37.70;49.50
19847;DHT22;10084;50.518;8.588;2022-08-04T10:09:29;37.90;56.30
19847;DHT22;10084;50.518;8.588;2022-08-04T10:14:52;38.60;53.80
19847;DHT22;10084;50.518;8.588;2022-08-04T10:17:59;38.00;52.40
19847;DHT22;10084;50.518;8.588;2022-08-04T10:20:47;38.00;53.60
19847;DHT22;10084;50.518;8.588;2022-08-04T10:23:32;38.20;55.70
19847;DHT22;10084;50.518;8.588;2022-08-04T10:29:09;37.90;52.80
19847;DHT22;10084;50.518;8.588;2022-08-04T10:31:43;38.00;58.40
19847;DHT22;10084;50.518;8.588;2022-08-04T10:34:13;38.10;53.90
19847;DHT22;10084;50.518;8.588;2022-08-04T10:36:52;37.70;53.60
19847;DHT22;10084;50.518;8.588;2022-08-04T10:39:28;38.40;53.00
19847;DHT22;10084;50.518;8.588;2022-08-04T10:42:19;38.50;58.40
19847;DHT22;10084;50.518;8.588;2022-08-04T10:44:54;38.60;55.80
19847;DHT22;10084;50.518;8.588;2022-08-04T10:47:29;38.60;55.80
19847;DHT22;10084;50.518;8.588;2022-08-04T10:49:59;38.60;53.80
19847;DHT22;10084;50.518;8.588;2022-08-04T10:52:43;38.60;55.10
19847;DHT22;10084;50.518;8.588;2022-08-04T10:55:17;38.60;50.30
19847;DHT22;10084;50.518;8.588;2022-08-04T10:57:51;38.60;50.60
19847;DHT22;10084;50.518;8.588;2022-08-04T11:00:24;38.60;51.50
19847;DHT22;10084;50.518;8.588;2022-08-04T11:05:42;39.00;56.90
19847;DHT22;10084;50.518;8.588;2022-08-04T11:08:34;38.80;57.00
19847;DHT22;10084;50.518;8.588;2022-08-04T11:14:19;38.80;54.00
19847;DHT22;10084;50.518;8.588;2022-08-04T11:16:23;38.80;53.70
19847;DHT22;10084;50.518;8.588;2022-08-04T11:21:46;38.20;55.20
19847;DHT22;10084;50.518;8.588;2022-08-04T11:24:17;38.50;50.90
19847;DHT22;10084;50.518;8.588;2022-08-04T11:27:00;38.40;50.90
19847;DHT22;10084;50.518;8.588;2022-08-04T11:32:07;38.40;50.80
19847;DHT22;10084;50.518;8.588;2022-08-04T11:34:37;38.60;52.10
19847;DHT22;10084;50.518;8.588;2022-08-04T11:37:10;38.50;47.40
19847;DHT22;10084;50.518;8.588;2022-08-04T11:39:42;38.50;44.40
19847;DHT22;10084;50.518;8.588;2022-08-04T11:42:13;38.60;46.80
19847;DHT22;10084;50.518;8.588;2022-08-04T11:44:45;38.70;46.30
19847;DHT22;10084;50.518;8.588;2022-08-04T11:50:08;38.80;47.10
19847;DHT22;10084;50.518;8.588;2022-08-04T11:52:39;38.80;46.50
19847;DHT22;10084;50.518;8.588;2022-08-04T11:55:11;38.70;46.10
19847;DHT22;10084;50.518;8.588;2022-08-04T11:57:38;38.60;45.80
19847;DHT22;10084;50.518;8.588;2022-08-04T12:00:07;38.60;45.70
19847;DHT22;10084;50.518;8.588;2022-08-04T12:03:00;38.50;45.90
19847;DHT22;10084;50.518;8.588;2022-08-04T12:05:32;38.60;46.50
19847;DHT22;10084;50.518;8.588;2022-08-04T12:08:08;38.60;48.90
19847;DHT22;10084;50.518;8.588;2022-08-04T12:10:44;38.50;40.30
19847;DHT22;10084;50.518;8.588;2022-08-04T12:16:24;38.40;40.70
19847;DHT22;10084;50.518;8.588;2022-08-04T12:19:00;38.30;41.00
19847;DHT22;10084;50.518;8.588;2022-08-04T12:21:32;38.30;41.40
19847;DHT22;10084;50.518;8.588;2022-08-04T12:24:13;38.30;41.80
19847;DHT22;10084;50.518;8.588;2022-08-04T12:26:44;38.30;43.60
19847;DHT22;10084;50.518;8.588;2022-08-04T12:29:15;38.40;45.90
19847;DHT22;10084;50.518;8.588;2022-08-04T12:34:38;38.40;48.50
19847;DHT22;10084;50.518;8.588;2022-08-04T12:39:52;38.40;43.40
19847;DHT22;10084;50.518;8.588;2022-08-04T12:42:23;38.00;41.50
19847;DHT22;10084;50.518;8.588;2022-08-04T12:44:53;38.40;42.50
19847;DHT22;10084;50.518;8.588;2022-08-04T12:47:26;38.50;46.10
19847;DHT22;10084;50.518;8.588;2022-08-04T12:49:54;38.40;45.10
19847;DHT22;10084;50.518;8.588;2022-08-04T12:52:21;38.40;44.40
19847;DHT22;10084;50.518;8.588;2022-08-04T12:54:53;38.40;44.60
19847;DHT22;10084;50.518;8.588;2022-08-04T12:57:20;38.40;43.00
19847;DHT22;10084;50.518;8.588;2022-08-04T12:59:48;38.50;46.50
19847;DHT22;10084;50.518;8.588;2022-08-04T13:02:26;38.50;48.40
19847;DHT22;10084;50.518;8.588;2022-08-04T13:04:58;38.70;47.60
19847;DHT22;10084;50.518;8.588;2022-08-04T13:07:26;38.80;46.10
19847;DHT22;10084;50.518;8.588;2022-08-04T13:09:52;39.00;47.10
19847;DHT22;10084;50.518;8.588;2022-08-04T13:12:21;39.20;46.80
19847;DHT22;10084;50.518;8.588;2022-08-04T13:14:50;39.20;43.50
19847;DHT22;10084;50.518;8.588;2022-08-04T13:17:17;39.30;43.70
19847;DHT22;10084;50.518;8.588;2022-08-04T13:19:46;39.40;46.10
19847;DHT22;10084;50.518;8.588;2022-08-04T13:22:12;39.40;47.30
19847;DHT22;10084;50.518;8.588;2022-08-04T13:24:41;39.50;45.50
19847;DHT22;10084;50.518;8.588;2022-08-04T13:27:10;39.90;44.60
19847;DHT22;10084;50.518;8.588;2022-08-04T13:29:40;39.40;44.70
19847;DHT22;10084;50.518;8.588;2022-08-04T13:32:06;39.40;46.20
19847;DHT22;10084;50.518;8.588;2022-08-04T13:34:34;39.20;47.50
19847;DHT22;10084;50.518;8.588;2022-08-04T13:37:01;39.00;46.00
19847;DHT22;10084;50.518;8.588;2022-08-04T13:39:29;38.90;46.90
19847;DHT22;10084;50.518;8.588;2022-08-04T13:41:57;38.70;46.80
19847;DHT22;10084;50.518;8.588;2022-08-04T13:44:31;38.50;41.90
19847;DHT22;10084;50.518;8.588;2022-08-04T13:47:00;38.40;43.70
19847;DHT22;10084;50.518;8.588;2022-08-04T13:49:27;38.40;40.90
19847;DHT22;10084;50.518;8.588;2022-08-04T13:51:56;38.60;42.90
19847;DHT22;10084;50.518;8.588;2022-08-04T13:54:24;38.40;43.40
19847;DHT22;10084;50.518;8.588;2022-08-04T13:56:55;38.50;44.90
19847;DHT22;10084;50.518;8.588;2022-08-04T13:59:25;38.40;41.00
19847;DHT22;10084;50.518;8.588;2022-08-04T14:01:59;38.40;41.30
19847;DHT22;10084;50.518;8.588;2022-08-04T14:04:27;38.50;41.60
19847;DHT22;10084;50.518;8.588;2022-08-04T14:07:09;38.50;41.00
19847;DHT22;10084;50.518;8.588;2022-08-04T14:09:38;38.50;41.70
19847;DHT22;10084;50.518;8.588;2022-08-04T14:12:13;38.60;46.90
19847;DHT22;10084;50.518;8.588;2022-08-04T14:14:51;38.90;40.10
19847;DHT22;10084;50.518;8.588;2022-08-04T14:17:22;38.60;43.50
19847;DHT22;10084;50.518;8.588;2022-08-04T14:25:01;38.80;37.60
19847;DHT22;10084;50.518;8.588;2022-08-04T14:27:39;38.90;35.80
19847;DHT22;10084;50.518;8.588;2022-08-04T14:30:07;39.00;38.70
19847;DHT22;10084;50.518;8.588;2022-08-04T14:33:08;39.00;42.00
19847;DHT22;10084;50.518;8.588;2022-08-04T14:35:35;38.90;41.50
19847;DHT22;10084;50.518;8.588;2022-08-04T14:38:10;38.80;40.30
19847;DHT22;10084;50.518;8.588;2022-08-04T14:40:40;38.60;39.00
19847;DHT22;10084;50.518;8.588;2022-08-04T14:43:07;38.40;35.50
19847;DHT22;10084;50.518;8.588;2022-08-04T14:45:41;38.30;36.10
19847;DHT22;10084;50.518;8.588;2022-08-04T14:48:10;38.30;37.60
19847;DHT22;10084;50.518;8.588;2022-08-04T14:50:37;38.30;38.60
19847;DHT22;10084;50.518;8.588;2022-08-04T14:53:06;38.30;41.50
19847;DHT22;10084;50.518;8.588;2022-08-04T14:55:33;38.30;38.40
19847;DHT22;10084;50.518;8.588;2022-08-04T14:57:59;38.20;37.80
19847;DHT22;10084;50.518;8.588;2022-08-04T15:00:35;38.20;38.30
19847;DHT22;10084;50.518;8.588;2022-08-04T15:03:08;38.20;39.30
19847;DHT22;10084;50.518;8.588;2022-08-04T15:05:39;38.20;39.80
19847;DHT22;10084;50.518;8.588;2022-08-04T15:08:06;38.20;40.10
19847;DHT22;10084;50.518;8.588;2022-08-04T15:10:32;38.10;40.50
19847;DHT22;10084;50.518;8.588;2022-08-04T15:13:01;38.00;40.90
19847;DHT22;10084;50.518;8.588;2022-08-04T15:15:28;38.00;41.50
19847;DHT22;10084;50.518;8.588;2022-08-04T15:17:54;38.00;42.10
19847;DHT22;10084;50.518;8.588;2022-08-04T15:20:20;38.00;42.70
19847;DHT22;10084;50.518;8.588;2022-08-04T15:22:46;38.00;43.20
19847;DHT22;10084;50.518;8.588;2022-08-04T15:25:12;38.10;44.30
19847;DHT22;10084;50.518;8.588;2022-08-04T15:27:40;38.10;45.60
19847;DHT22;10084;50.518;8.588;2022-08-04T15:30:08;38.10;44.70
19847;DHT22;10084;50.518;8.588;2022-08-04T15:32:39;38.10;42.20
19847;DHT22;10084;50.518;8.588;2022-08-04T15:40:39;37.80;44.80
19847;DHT22;10084;50.518;8.588;2022-08-04T15:45:59;37.50;47.30
19847;DHT22;10084;50.518;8.588;2022-08-04T15:48:32;37.30;44.70
19847;DHT22;10084;50.518;8.588;2022-08-04T15:51:00;37.10;42.50
19847;DHT22;10084;50.518;8.588;2022-08-04T15:54:19;37.00;44.70
19847;DHT22;10084;50.518;8.588;2022-08-04T15:56:45;36.80;43.50
19847;DHT22;10084;50.518;8.588;2022-08-04T15:59:11;36.60;44.60
19847;DHT22;10084;50.518;8.588;2022-08-04T16:01:36;36.60;42.60
19847;DHT22;10084;50.518;8.588;2022-08-04T16:04:20;36.30;40.70
19847;DHT22;10084;50.518;8.588;2022-08-04T16:06:46;36.30;41.50
19847;DHT22;10084;50.518;8.588;2022-08-04T16:09:24;36.20;42.00
19847;DHT22;10084;50.518;8.588;2022-08-04T16:11:50;36.10;43.00
19847;DHT22;10084;50.518;8.588;2022-08-04T16:14:16;36.00;44.40
19847;DHT22;10084;50.518;8.588;2022-08-04T16:19:48;35.90;42.10
19847;DHT22;10084;50.518;8.588;2022-08-04T16:22:34;35.80;42.60
19847;DHT22;10084;50.518;8.588;2022-08-04T16:25:00;35.70;43.00
19847;DHT22;10084;50.518;8.588;2022-08-04T16:27:43;35.70;43.40
19847;DHT22;10084;50.518;8.588;2022-08-04T16:30:11;35.70;44.20
19847;DHT22;10084;50.518;8.588;2022-08-04T16:32:45;35.80;46.20
19847;DHT22;10084;50.518;8.588;2022-08-04T16:35:25;35.90;46.60
19847;DHT22;10084;50.518;8.588;2022-08-04T16:38:09;35.90;46.90
19847;DHT22;10084;50.518;8.588;2022-08-04T16:40:36;35.90;47.40
19847;DHT22;10084;50.518;8.588;2022-08-04T16:43:10;35.90;48.00
19847;DHT22;10084;50.518;8.588;2022-08-04T16:48:14;35.90;48.90
19847;DHT22;10084;50.518;8.588;2022-08-04T16:50:51;35.90;46.80
19847;DHT22;10084;50.518;8.588;2022-08-04T16:53:18;35.90;45.20
19847;DHT22;10084;50.518;8.588;2022-08-04T16:55:46;35.80;45.20
19847;DHT22;10084;50.518;8.588;2022-08-04T16:58:12;35.80;46.30
19847;DHT22;10084;50.518;8.588;2022-08-04T17:00:38;35.90;46.50
19847;DHT22;10084;50.518;8.588;2022-08-04T17:03:06;35.70;46.00
19847;DHT22;10084;50.518;8.588;2022-08-04T17:05:33;35.70;48.50
19847;DHT22;10084;50.518;8.588;2022-08-04T17:08:00;35.60;49.60
19847;DHT22;10084;50.518;8.588;2022-08-04T17:10:43;35.60;50.00
19847;DHT22;10084;50.518;8.588;2022-08-04T17:15:56;35.40;46.50
19847;DHT22;10084;50.518;8.588;2022-08-04T17:18:25;35.30;48.30
19847;DHT22;10084;50.518;8.588;2022-08-04T17:20:53;35.40;48.90
19847;DHT22;10084;50.518;8.588;2022-08-04T17:26:04;35.10;49.10
19847;DHT22;10084;50.518;8.588;2022-08-04T17:28:31;35.10;52.10
19847;DHT22;10084;50.518;8.588;2022-08-04T17:30:59;35.00;44.80
19847;DHT22;10084;50.518;8.588;2022-08-04T17:33:26;34.90;44.00
19847;DHT22;10084;50.518;8.588;2022-08-04T17:35:55;34.90;44.20
19847;DHT22;10084;50.518;8.588;2022-08-04T17:38:24;34.80;44.60
19847;DHT22;10084;50.518;8.588;2022-08-04T17:41:01;34.80;45.30
19847;DHT22;10084;50.518;8.588;2022-08-04T17:43:36;34.70;46.00
19847;DHT22;10084;50.518;8.588;2022-08-04T17:46:23;34.60;48.70
19847;DHT22;10084;50.518;8.588;2022-08-04T17:51:44;34.60;53.30
19847;DHT22;10084;50.518;8.588;2022-08-04T17:54:15;34.40;47.20
19847;DHT22;10084;50.518;8.588;2022-08-04T17:59:14;34.20;42.50
19847;DHT22;10084;50.518;8.588;2022-08-04T18:07:03;33.90;49.50
19847;DHT22;10084;50.518;8.588;2022-08-04T18:09:36;33.80;49.50
19847;DHT22;10084;50.518;8.588;2022-08-04T18:14:45;33.50;40.70
19847;DHT22;10084;50.518;8.588;2022-08-04T18:17:12;33.30;41.10
19847;DHT22;10084;50.518;8.588;2022-08-04T18:19:51;33.70;37.40
19847;DHT22;10084;50.518;8.588;2022-08-04T18:22:17;33.00;35.40
19847;DHT22;10084;50.518;8.588;2022-08-04T18:24:43;32.90;35.60
19847;DHT22;10084;50.518;8.588;2022-08-04T18:27:09;32.80;35.80
19847;DHT22;10084;50.518;8.588;2022-08-04T18:29:35;32.60;35.90
19847;DHT22;10084;50.518;8.588;2022-08-04T18:32:01;32.50;36.10
19847;DHT22;10084;50.518;8.588;2022-08-04T18:34:27;32.40;36.30
19847;DHT22;10084;50.518;8.588;2022-08-04T18:36:53;32.30;36.50
19847;DHT22;10084;50.518;8.588;2022-08-04T18:39:19;32.20;36.80
19847;DHT22;10084;50.518;8.588;2022-08-04T18:41:48;32.10;36.90
19847;DHT22;10084;50.518;8.588;2022-08-04T18:44:14;31.90;37.10
19847;DHT22;10084;50.518;8.588;2022-08-04T18:46:40;31.80;37.20
19847;DHT22;10084;50.518;8.588;2022-08-04T18:49:06;31.70;37.40
19847;DHT22;10084;50.518;8.588;2022-08-04T18:51:32;31.60;37.60
19847;DHT22;10084;50.518;8.588;2022-08-04T18:53:58;31.50;37.70
19847;DHT22;10084;50.518;8.588;2022-08-04T18:56:23;31.40;38.00
19847;DHT22;10084;50.518;8.588;2022-08-04T18:58:49;31.30;38.20
19847;DHT22;10084;50.518;8.588;2022-08-04T19:01:15;31.20;38.40
19847;DHT22;10084;50.518;8.588;2022-08-04T19:03:41;31.10;38.80
19847;DHT22;10084;50.518;8.588;2022-08-04T19:06:07;30.90;39.00
19847;DHT22;10084;50.518;8.588;2022-08-04T19:08:32;30.90;39.20
19847;DHT22;10084;50.518;8.588;2022-08-04T19:10:58;30.70;39.30
19847;DHT22;10084;50.518;8.588;2022-08-04T19:13:25;30.60;39.40
19847;DHT22;10084;50.518;8.588;2022-08-04T19:15:52;30.50;39.60
19847;DHT22;10084;50.518;8.588;2022-08-04T19:18:18;30.40;39.80
19847;DHT22;10084;50.518;8.588;2022-08-04T19:20:43;30.40;40.10
19847;DHT22;10084;50.518;8.588;2022-08-04T19:23:11;30.30;40.30
19847;DHT22;10084;50.518;8.588;2022-08-04T19:25:37;30.20;40.50
19847;DHT22;10084;50.518;8.588;2022-08-04T19:28:04;30.20;40.80
19847;DHT22;10084;50.518;8.588;2022-08-04T19:30:29;30.20;41.00
19847;DHT22;10084;50.518;8.588;2022-08-04T19:32:55;30.10;41.20
19847;DHT22;10084;50.518;8.588;2022-08-04T19:35:21;30.10;41.50
19847;DHT22;10084;50.518;8.588;2022-08-04T19:37:47;30.10;41.70
19847;DHT22;10084;50.518;8.588;2022-08-04T19:40:12;30.00;41.80
19847;DHT22;10084;50.518;8.588;2022-08-04T19:42:39;30.00;42.10
19847;DHT22;10084;50.518;8.588;2022-08-04T19:45:08;30.00;42.30
19847;DHT22;10084;50.518;8.588;2022-08-04T19:47:34;29.90;42.50
19847;DHT22;10084;50.518;8.588;2022-08-04T19:50:00;29.90;42.70
19847;DHT22;10084;50.518;8.588;2022-08-04T19:52:25;29.80;42.90
19847;DHT22;10084;50.518;8.588;2022-08-04T19:54:51;29.80;43.10
19847;DHT22;10084;50.518;8.588;2022-08-04T19:57:17;29.70;43.20
19847;DHT22;10084;50.518;8.588;2022-08-04T19:59:44;29.70;43.40
19847;DHT22;10084;50.518;8.588;2022-08-04T20:02:09;29.60;43.60
19847;DHT22;10084;50.518;8.588;2022-08-04T20:04:35;29.50;43.80
19847;DHT22;10084;50.518;8.588;2022-08-04T20:07:01;29.50;44.00
19847;DHT22;10084;50.518;8.588;2022-08-04T20:09:27;29.40;44.20
19847;DHT22;10084;50.518;8.588;2022-08-04T20:11:54;29.40;44.50
19847;DHT22;10084;50.518;8.588;2022-08-04T20:14:20;29.30;44.70
19847;DHT22;10084;50.518;8.588;2022-08-04T20:16:45;29.20;45.00
19847;DHT22;10084;50.518;8.588;2022-08-04T20:19:11;29.20;45.20
19847;DHT22;10084;50.518;8.588;2022-08-04T20:21:37;29.10;45.30